sensor_id;sensor_type;location;lat;lon;timestamp;P1;durP1;ratioP1;P2;durP2;ratioP2
38182;SDS011;23991;52.430;10.586;2024-02-23T00:00:02;3.50;;;1.23;;
38182;SDS011;23991;52.430;10.586;2024-02-23T00:02:30;3.90;;;1.17;;
38182;SDS011;23991;52.430;10.586;2024-02-23T00:05:02;1.95;;;0.98;;
38182;SDS011;23991;52.430;10.586;2024-02-23T00:07:30;4.35;;;0.85;;
38182;SDS011;23991;52.430;10.586;2024-02-23T00:09:55;4.28;;;1.30;;
38182;SDS011;23991;52.430;10.586;2024-02-23T00:12:23;2.80;;;1.10;;
38182;SDS011;23991;52.430;10.586;2024-02-23T00:14:49;5.43;;;1.40;;
38182;SDS011;23991;52.430;10.586;2024-02-23T00:17:15;7.30;;;1.38;;
38182;SDS011;23991;52.430;10.586;2024-02-23T00:19:45;4.78;;;1.17;;
38182;SDS011;23991;52.430;10.586;2024-02-23T00:22:12;6.03;;;1.15;;
38182;SDS011;23991;52.430;10.586;2024-02-23T00:24:38;3.22;;;1.33;;
38182;SDS011;23991;52.430;10.586;2024-02-23T00:27:03;4.97;;;1.35;;
38182;SDS011;23991;52.430;10.586;2024-02-23T00:29:29;5.30;;;0.98;;
38182;SDS011;23991;52.430;10.586;2024-02-23T00:31:54;3.55;;;1.30;;
38182;SDS011;23991;52.430;10.586;2024-02-23T00:34:20;7.30;;;1.42;;
38182;SDS011;23991;52.430;10.586;2024-02-23T00:36:46;2.05;;;0.88;;
38182;SDS011;23991;52.430;10.586;2024-02-23T00:39:11;1.65;;;0.88;;
38182;SDS011;23991;52.430;10.586;2024-02-23T00:41:37;5.85;;;1.35;;
38182;SDS011;23991;52.430;10.586;2024-02-23T00:44:03;5.15;;;1.20;;
38182;SDS011;23991;52.430;10.586;2024-02-23T00:46:28;4.47;;;1.20;;
38182;SDS011;23991;52.430;10.586;2024-02-23T00:48:54;3.22;;;1.05;;
38182;SDS011;23991;52.430;10.586;2024-02-23T00:51:20;4.07;;;1.30;;
38182;SDS011;23991;52.430;10.586;2024-02-23T00:53:46;2.90;;;1.08;;
38182;SDS011;23991;52.430;10.586;2024-02-23T00:56:12;5.65;;;1.30;;
38182;SDS011;23991;52.430;10.586;2024-02-23T00:58:37;3.45;;;1.08;;
38182;SDS011;23991;52.430;10.586;2024-02-23T01:01:03;4.68;;;1.00;;
38182;SDS011;23991;52.430;10.586;2024-02-23T01:03:29;2.35;;;1.02;;
38182;SDS011;23991;52.430;10.586;2024-02-23T01:05:55;2.58;;;0.90;;
38182;SDS011;23991;52.430;10.586;2024-02-23T01:08:20;3.17;;;1.00;;
38182;SDS011;23991;52.430;10.586;2024-02-23T01:10:46;2.75;;;1.00;;
38182;SDS011;23991;52.430;10.586;2024-02-23T01:13:11;3.72;;;1.10;;
38182;SDS011;23991;52.430;10.586;2024-02-23T01:15:37;2.22;;;1.00;;
38182;SDS011;23991;52.430;10.586;2024-02-23T01:18:03;4.68;;;1.10;;
38182;SDS011;23991;52.430;10.586;2024-02-23T01:20:30;4.30;;;1.20;;
38182;SDS011;23991;52.430;10.586;2024-02-23T01:22:56;3.72;;;1.25;;
38182;SDS011;23991;52.430;10.586;2024-02-23T01:25:22;3.38;;;1.10;;
38182;SDS011;23991;52.430;10.586;2024-02-23T01:27:47;2.72;;;0.85;;
38182;SDS011;23991;52.430;10.586;2024-02-23T01:30:13;3.83;;;0.90;;
38182;SDS011;23991;52.430;10.586;2024-02-23T01:32:38;4.70;;;1.00;;
38182;SDS011;23991;52.430;10.586;2024-02-23T01:35:07;2.67;;;1.05;;
38182;SDS011;23991;52.430;10.586;2024-02-23T01:37:33;2.38;;;0.90;;
38182;SDS011;23991;52.430;10.586;2024-02-23T01:39:59;1.58;;;0.70;;
38182;SDS011;23991;52.430;10.586;2024-02-23T01:42:25;1.38;;;0.82;;
38182;SDS011;23991;52.430;10.586;2024-02-23T01:44:51;4.22;;;0.98;;
38182;SDS011;23991;52.430;10.586;2024-02-23T01:47:17;2.30;;;0.68;;
38182;SDS011;23991;52.430;10.586;2024-02-23T01:49:44;3.35;;;1.95;;
38182;SDS011;23991;52.430;10.586;2024-02-23T01:52:11;2.72;;;0.80;;
38182;SDS011;23991;52.430;10.586;2024-02-23T01:54:38;0.85;;;0.60;;
38182;SDS011;23991;52.430;10.586;2024-02-23T01:57:04;1.65;;;0.77;;
38182;SDS011;23991;52.430;10.586;2024-02-23T01:59:30;1.48;;;0.70;;
38182;SDS011;23991;52.430;10.586;2024-02-23T02:01:55;1.83;;;0.63;;
38182;SDS011;23991;52.430;10.586;2024-02-23T02:04:21;1.42;;;0.70;;
38182;SDS011;23991;52.430;10.586;2024-02-23T02:06:46;1.00;;;0.70;;
38182;SDS011;23991;52.430;10.586;2024-02-23T02:09:13;1.33;;;0.70;;
38182;SDS011;23991;52.430;10.586;2024-02-23T02:11:48;1.10;;;0.80;;
38182;SDS011;23991;52.430;10.586;2024-02-23T02:14:14;2.25;;;0.63;;
38182;SDS011;23991;52.430;10.586;2024-02-23T02:16:41;1.25;;;0.57;;
38182;SDS011;23991;52.430;10.586;2024-02-23T02:19:06;0.50;;;0.50;;
38182;SDS011;23991;52.430;10.586;2024-02-23T02:21:32;3.00;;;0.65;;
38182;SDS011;23991;52.430;10.586;2024-02-23T02:23:59;1.60;;;0.65;;
38182;SDS011;23991;52.430;10.586;2024-02-23T02:26:24;0.95;;;0.65;;
38182;SDS011;23991;52.430;10.586;2024-02-23T02:28:50;1.92;;;0.60;;
38182;SDS011;23991;52.430;10.586;2024-02-23T02:31:15;0.60;;;0.60;;
38182;SDS011;23991;52.430;10.586;2024-02-23T02:33:41;0.93;;;0.68;;
38182;SDS011;23991;52.430;10.586;2024-02-23T02:36:07;0.55;;;0.55;;
38182;SDS011;23991;52.430;10.586;2024-02-23T02:38:32;0.30;;;0.30;;
38182;SDS011;23991;52.430;10.586;2024-02-23T02:40:58;0.65;;;0.52;;
38182;SDS011;23991;52.430;10.586;2024-02-23T02:43:25;1.73;;;0.55;;
38182;SDS011;23991;52.430;10.586;2024-02-23T02:45:54;0.65;;;0.50;;
38182;SDS011;23991;52.430;10.586;2024-02-23T02:48:19;0.50;;;0.50;;
38182;SDS011;23991;52.430;10.586;2024-02-23T02:50:45;2.17;;;0.60;;
38182;SDS011;23991;52.430;10.586;2024-02-23T02:53:11;0.50;;;0.47;;
38182;SDS011;23991;52.430;10.586;2024-02-23T02:55:37;1.25;;;0.50;;
38182;SDS011;23991;52.430;10.586;2024-02-23T02:58:06;0.47;;;0.43;;
38182;SDS011;23991;52.430;10.586;2024-02-23T03:00:31;0.45;;;0.45;;
38182;SDS011;23991;52.430;10.586;2024-02-23T03:02:57;0.70;;;0.40;;
38182;SDS011;23991;52.430;10.586;2024-02-23T03:05:22;0.35;;;0.35;;
38182;SDS011;23991;52.430;10.586;2024-02-23T03:07:48;0.32;;;0.32;;
38182;SDS011;23991;52.430;10.586;2024-02-23T03:10:13;0.40;;;0.40;;
38182;SDS011;23991;52.430;10.586;2024-02-23T03:12:39;1.17;;;0.52;;
38182;SDS011;23991;52.430;10.586;2024-02-23T03:15:05;1.23;;;0.63;;
38182;SDS011;23991;52.430;10.586;2024-02-23T03:17:31;0.35;;;0.30;;
38182;SDS011;23991;52.430;10.586;2024-02-23T03:19:56;0.75;;;0.75;;
38182;SDS011;23991;52.430;10.586;2024-02-23T03:22:22;0.40;;;0.40;;
38182;SDS011;23991;52.430;10.586;2024-02-23T03:24:48;0.68;;;0.40;;
38182;SDS011;23991;52.430;10.586;2024-02-23T03:27:13;0.50;;;0.50;;
38182;SDS011;23991;52.430;10.586;2024-02-23T03:29:39;0.40;;;0.40;;
38182;SDS011;23991;52.430;10.586;2024-02-23T03:32:05;1.25;;;0.40;;
38182;SDS011;23991;52.430;10.586;2024-02-23T03:34:31;0.52;;;0.40;;
38182;SDS011;23991;52.430;10.586;2024-02-23T03:36:56;1.75;;;0.50;;
38182;SDS011;23991;52.430;10.586;2024-02-23T03:39:23;0.40;;;0.40;;
38182;SDS011;23991;52.430;10.586;2024-02-23T03:41:49;0.40;;;0.40;;
38182;SDS011;23991;52.430;10.586;2024-02-23T03:44:14;0.73;;;0.50;;
38182;SDS011;23991;52.430;10.586;2024-02-23T03:46:40;0.85;;;0.70;;
38182;SDS011;23991;52.430;10.586;2024-02-23T03:49:05;0.70;;;0.57;;
38182;SDS011;23991;52.430;10.586;2024-02-23T03:51:31;0.40;;;0.40;;
38182;SDS011;23991;52.430;10.586;2024-02-23T03:53:58;2.15;;;0.80;;
38182;SDS011;23991;52.430;10.586;2024-02-23T03:56:24;0.43;;;0.40;;
38182;SDS011;23991;52.430;10.586;2024-02-23T03:58:50;0.57;;;0.57;;
38182;SDS011;23991;52.430;10.586;2024-02-23T04:01:15;2.03;;;0.70;;
38182;SDS011;23991;52.430;10.586;2024-02-23T04:03:41;1.48;;;0.60;;
38182;SDS011;23991;52.430;10.586;2024-02-23T04:06:06;1.25;;;0.52;;
38182;SDS011;23991;52.430;10.586;2024-02-23T04:08:32;2.85;;;0.80;;
38182;SDS011;23991;52.430;10.586;2024-02-23T04:10:58;1.73;;;0.77;;
38182;SDS011;23991;52.430;10.586;2024-02-23T04:13:23;0.82;;;0.65;;
38182;SDS011;23991;52.430;10.586;2024-02-23T04:15:49;1.33;;;0.88;;
38182;SDS011;23991;52.430;10.586;2024-02-23T04:18:14;1.20;;;0.70;;
38182;SDS011;23991;52.430;10.586;2024-02-23T04:20:40;1.40;;;0.65;;
38182;SDS011;23991;52.430;10.586;2024-02-23T04:23:06;1.48;;;0.90;;
38182;SDS011;23991;52.430;10.586;2024-02-23T04:25:32;1.58;;;0.88;;
38182;SDS011;23991;52.430;10.586;2024-02-23T04:27:57;2.33;;;1.13;;
38182;SDS011;23991;52.430;10.586;2024-02-23T04:30:23;1.95;;;0.80;;
38182;SDS011;23991;52.430;10.586;2024-02-23T04:32:48;2.65;;;1.10;;
38182;SDS011;23991;52.430;10.586;2024-02-23T04:35:14;2.65;;;1.08;;
38182;SDS011;23991;52.430;10.586;2024-02-23T04:37:42;3.42;;;1.23;;
38182;SDS011;23991;52.430;10.586;2024-02-23T04:40:09;1.85;;;0.77;;
38182;SDS011;23991;52.430;10.586;2024-02-23T04:42:35;3.90;;;0.98;;
38182;SDS011;23991;52.430;10.586;2024-02-23T04:45:01;1.75;;;0.80;;
38182;SDS011;23991;52.430;10.586;2024-02-23T04:47:26;3.15;;;1.25;;
38182;SDS011;23991;52.430;10.586;2024-02-23T04:49:52;1.90;;;0.70;;
38182;SDS011;23991;52.430;10.586;2024-02-23T04:52:17;3.58;;;0.85;;
38182;SDS011;23991;52.430;10.586;2024-02-23T04:54:46;4.18;;;1.00;;
38182;SDS011;23991;52.430;10.586;2024-02-23T04:57:11;4.63;;;1.20;;
38182;SDS011;23991;52.430;10.586;2024-02-23T04:59:37;1.42;;;0.90;;
38182;SDS011;23991;52.430;10.586;2024-02-23T05:02:08;2.45;;;1.00;;
38182;SDS011;23991;52.430;10.586;2024-02-23T05:04:33;2.45;;;1.00;;
38182;SDS011;23991;52.430;10.586;2024-02-23T05:06:59;1.52;;;0.98;;
38182;SDS011;23991;52.430;10.586;2024-02-23T05:09:24;4.40;;;1.00;;
38182;SDS011;23991;52.430;10.586;2024-02-23T05:11:50;2.80;;;1.50;;
38182;SDS011;23991;52.430;10.586;2024-02-23T05:14:16;2.75;;;1.30;;
38182;SDS011;23991;52.430;10.586;2024-02-23T05:16:41;4.15;;;1.33;;
38182;SDS011;23991;52.430;10.586;2024-02-23T05:19:07;1.45;;;1.00;;
38182;SDS011;23991;52.430;10.586;2024-02-23T05:21:32;2.22;;;0.93;;
38182;SDS011;23991;52.430;10.586;2024-02-23T05:23:58;1.75;;;0.90;;
38182;SDS011;23991;52.430;10.586;2024-02-23T05:26:24;1.50;;;0.85;;
38182;SDS011;23991;52.430;10.586;2024-02-23T05:28:49;1.45;;;0.85;;
38182;SDS011;23991;52.430;10.586;2024-02-23T05:31:15;2.13;;;1.00;;
38182;SDS011;23991;52.430;10.586;2024-02-23T05:33:40;2.50;;;1.10;;
38182;SDS011;23991;52.430;10.586;2024-02-23T05:36:07;1.83;;;0.90;;
38182;SDS011;23991;52.430;10.586;2024-02-23T05:38:41;1.30;;;0.93;;
38182;SDS011;23991;52.430;10.586;2024-02-23T05:41:13;2.03;;;0.90;;
38182;SDS011;23991;52.430;10.586;2024-02-23T05:43:39;2.92;;;1.30;;
38182;SDS011;23991;52.430;10.586;2024-02-23T05:46:07;2.13;;;0.80;;
38182;SDS011;23991;52.430;10.586;2024-02-23T05:48:33;3.08;;;0.98;;
38182;SDS011;23991;52.430;10.586;2024-02-23T05:50:58;1.80;;;0.90;;
38182;SDS011;23991;52.430;10.586;2024-02-23T05:53:24;2.70;;;0.93;;
38182;SDS011;23991;52.430;10.586;2024-02-23T05:55:49;2.33;;;0.90;;
38182;SDS011;23991;52.430;10.586;2024-02-23T05:58:17;4.57;;;1.10;;
38182;SDS011;23991;52.430;10.586;2024-02-23T06:00:43;2.20;;;0.90;;
38182;SDS011;23991;52.430;10.586;2024-02-23T06:03:09;2.97;;;1.05;;
38182;SDS011;23991;52.430;10.586;2024-02-23T06:05:34;1.55;;;0.82;;
38182;SDS011;23991;52.430;10.586;2024-02-23T06:08:00;2.67;;;0.82;;
38182;SDS011;23991;52.430;10.586;2024-02-23T06:10:26;2.85;;;0.90;;
38182;SDS011;23991;52.430;10.586;2024-02-23T06:12:51;2.92;;;0.80;;
38182;SDS011;23991;52.430;10.586;2024-02-23T06:15:17;4.20;;;1.30;;
38182;SDS011;23991;52.430;10.586;2024-02-23T06:17:43;1.83;;;0.80;;
38182;SDS011;23991;52.430;10.586;2024-02-23T06:20:09;4.70;;;0.80;;
38182;SDS011;23991;52.430;10.586;2024-02-23T06:22:35;4.57;;;1.40;;
38182;SDS011;23991;52.430;10.586;2024-02-23T06:25:01;2.97;;;0.88;;
38182;SDS011;23991;52.430;10.586;2024-02-23T06:27:27;4.50;;;1.00;;
38182;SDS011;23991;52.430;10.586;2024-02-23T06:29:53;2.75;;;0.90;;
38182;SDS011;23991;52.430;10.586;2024-02-23T06:32:18;2.38;;;1.10;;
38182;SDS011;23991;52.430;10.586;2024-02-23T06:34:44;2.10;;;1.10;;
38182;SDS011;23991;52.430;10.586;2024-02-23T06:37:10;2.03;;;0.80;;
38182;SDS011;23991;52.430;10.586;2024-02-23T06:39:35;3.05;;;0.85;;
38182;SDS011;23991;52.430;10.586;2024-02-23T06:42:01;2.85;;;0.88;;
38182;SDS011;23991;52.430;10.586;2024-02-23T06:44:29;1.13;;;0.77;;
38182;SDS011;23991;52.430;10.586;2024-02-23T06:46:55;1.83;;;1.00;;
38182;SDS011;23991;52.430;10.586;2024-02-23T06:49:20;2.75;;;0.93;;
38182;SDS011;23991;52.430;10.586;2024-02-23T06:51:46;1.60;;;1.00;;
38182;SDS011;23991;52.430;10.586;2024-02-23T06:54:11;2.08;;;0.93;;
38182;SDS011;23991;52.430;10.586;2024-02-23T06:59:10;4.07;;;1.00;;
38182;SDS011;23991;52.430;10.586;2024-02-23T07:01:35;2.22;;;0.90;;
38182;SDS011;23991;52.430;10.586;2024-02-23T07:04:02;2.60;;;0.90;;
38182;SDS011;23991;52.430;10.586;2024-02-23T07:06:27;1.00;;;0.90;;
38182;SDS011;23991;52.430;10.586;2024-02-23T07:08:56;2.83;;;1.00;;
38182;SDS011;23991;52.430;10.586;2024-02-23T07:11:25;2.35;;;0.93;;
38182;SDS011;23991;52.430;10.586;2024-02-23T07:14:00;6.18;;;1.30;;
38182;SDS011;23991;52.430;10.586;2024-02-23T07:16:25;3.20;;;1.20;;
38182;SDS011;23991;52.430;10.586;2024-02-23T07:18:51;2.83;;;1.10;;
38182;SDS011;23991;52.430;10.586;2024-02-23T07:21:17;3.63;;;1.13;;
38182;SDS011;23991;52.430;10.586;2024-02-23T07:23:46;2.30;;;1.08;;
38182;SDS011;23991;52.430;10.586;2024-02-23T07:26:12;3.25;;;0.90;;
38182;SDS011;23991;52.430;10.586;2024-02-23T07:28:37;1.70;;;0.73;;
38182;SDS011;23991;52.430;10.586;2024-02-23T07:31:03;2.90;;;1.05;;
38182;SDS011;23991;52.430;10.586;2024-02-23T07:33:28;1.67;;;0.70;;
38182;SDS011;23991;52.430;10.586;2024-02-23T07:35:54;3.67;;;1.10;;
38182;SDS011;23991;52.430;10.586;2024-02-23T07:38:19;1.27;;;0.60;;
38182;SDS011;23991;52.430;10.586;2024-02-23T07:40:45;2.17;;;0.90;;
38182;SDS011;23991;52.430;10.586;2024-02-23T07:43:11;2.05;;;1.10;;
38182;SDS011;23991;52.430;10.586;2024-02-23T07:45:36;5.30;;;1.67;;
38182;SDS011;23991;52.430;10.586;2024-02-23T07:48:03;2.78;;;1.10;;
38182;SDS011;23991;52.430;10.586;2024-02-23T07:50:29;3.40;;;1.20;;
38182;SDS011;23991;52.430;10.586;2024-02-23T07:52:54;3.10;;;1.10;;
38182;SDS011;23991;52.430;10.586;2024-02-23T07:55:20;2.20;;;0.95;;
38182;SDS011;23991;52.430;10.586;2024-02-23T07:57:45;4.10;;;1.63;;
38182;SDS011;23991;52.430;10.586;2024-02-23T08:00:11;2.83;;;1.10;;
38182;SDS011;23991;52.430;10.586;2024-02-23T08:02:43;2.10;;;1.08;;
38182;SDS011;23991;52.430;10.586;2024-02-23T08:05:08;7.35;;;1.30;;
38182;SDS011;23991;52.430;10.586;2024-02-23T08:07:34;4.13;;;1.15;;
38182;SDS011;23991;52.430;10.586;2024-02-23T08:10:00;2.85;;;1.00;;
38182;SDS011;23991;52.430;10.586;2024-02-23T08:12:27;3.80;;;1.38;;
38182;SDS011;23991;52.430;10.586;2024-02-23T08:14:53;5.22;;;0.98;;
38182;SDS011;23991;52.430;10.586;2024-02-23T08:17:19;3.30;;;1.00;;
38182;SDS011;23991;52.430;10.586;2024-02-23T08:19:46;4.45;;;0.90;;
38182;SDS011;23991;52.430;10.586;2024-02-23T08:22:11;3.70;;;1.00;;
38182;SDS011;23991;52.430;10.586;2024-02-23T08:24:37;2.38;;;1.10;;
38182;SDS011;23991;52.430;10.586;2024-02-23T08:27:02;4.30;;;1.35;;
38182;SDS011;23991;52.430;10.586;2024-02-23T08:29:28;2.70;;;1.00;;
38182;SDS011;23991;52.430;10.586;2024-02-23T08:31:54;2.38;;;0.80;;
38182;SDS011;23991;52.430;10.586;2024-02-23T08:34:22;2.30;;;1.08;;
38182;SDS011;23991;52.430;10.586;2024-02-23T08:36:49;2.63;;;0.90;;
38182;SDS011;23991;52.430;10.586;2024-02-23T08:39:15;4.15;;;1.05;;
38182;SDS011;23991;52.430;10.586;2024-02-23T08:41:41;3.92;;;0.90;;
38182;SDS011;23991;52.430;10.586;2024-02-23T08:44:06;3.78;;;1.23;;
38182;SDS011;23991;52.430;10.586;2024-02-23T08:46:32;5.63;;;1.63;;
38182;SDS011;23991;52.430;10.586;2024-02-23T08:48:57;3.85;;;1.30;;
38182;SDS011;23991;52.430;10.586;2024-02-23T08:51:23;4.15;;;1.50;;
38182;SDS011;23991;52.430;10.586;2024-02-23T08:53:48;4.00;;;1.70;;
38182;SDS011;23991;52.430;10.586;2024-02-23T08:56:14;4.57;;;1.13;;
38182;SDS011;23991;52.430;10.586;2024-02-23T08:58:41;4.93;;;1.35;;
38182;SDS011;23991;52.430;10.586;2024-02-23T09:01:06;1.75;;;0.80;;
38182;SDS011;23991;52.430;10.586;2024-02-23T09:03:34;2.83;;;1.15;;
38182;SDS011;23991;52.430;10.586;2024-02-23T09:06:02;3.08;;;0.98;;
38182;SDS011;23991;52.430;10.586;2024-02-23T09:08:31;4.25;;;1.20;;
38182;SDS011;23991;52.430;10.586;2024-02-23T09:10:56;3.63;;;0.90;;
38182;SDS011;23991;52.430;10.586;2024-02-23T09:13:23;2.53;;;0.93;;
38182;SDS011;23991;52.430;10.586;2024-02-23T09:15:48;4.78;;;1.10;;
38182;SDS011;23991;52.430;10.586;2024-02-23T09:18:14;3.60;;;1.10;;
38182;SDS011;23991;52.430;10.586;2024-02-23T09:20:39;2.08;;;0.88;;
38182;SDS011;23991;52.430;10.586;2024-02-23T09:23:05;5.18;;;1.08;;
38182;SDS011;23991;52.430;10.586;2024-02-23T09:25:30;4.20;;;1.10;;
38182;SDS011;23991;52.430;10.586;2024-02-23T09:27:56;2.63;;;0.90;;
38182;SDS011;23991;52.430;10.586;2024-02-23T09:30:22;2.72;;;1.00;;
38182;SDS011;23991;52.430;10.586;2024-02-23T09:32:48;5.25;;;0.90;;
38182;SDS011;23991;52.430;10.586;2024-02-23T09:35:13;5.70;;;1.30;;
38182;SDS011;23991;52.430;10.586;2024-02-23T09:37:39;5.50;;;0.85;;
38182;SDS011;23991;52.430;10.586;2024-02-23T09:40:05;2.85;;;1.15;;
38182;SDS011;23991;52.430;10.586;2024-02-23T09:42:37;4.35;;;0.90;;
38182;SDS011;23991;52.430;10.586;2024-02-23T09:45:06;3.95;;;1.05;;
38182;SDS011;23991;52.430;10.586;2024-02-23T09:47:39;3.72;;;1.05;;
38182;SDS011;23991;52.430;10.586;2024-02-23T09:50:14;2.72;;;1.00;;
38182;SDS011;23991;52.430;10.586;2024-02-23T09:52:42;1.80;;;0.88;;
38182;SDS011;23991;52.430;10.586;2024-02-23T09:55:11;4.28;;;1.20;;
38182;SDS011;23991;52.430;10.586;2024-02-23T09:57:36;4.47;;;1.10;;
38182;SDS011;23991;52.430;10.586;2024-02-23T10:00:10;3.60;;;1.10;;
38182;SDS011;23991;52.430;10.586;2024-02-23T10:02:38;3.58;;;1.08;;
38182;SDS011;23991;52.430;10.586;2024-02-23T10:05:05;2.13;;;0.82;;
38182;SDS011;23991;52.430;10.586;2024-02-23T10:07:35;2.90;;;0.88;;
38182;SDS011;23991;52.430;10.586;2024-02-23T10:10:00;2.80;;;0.98;;
38182;SDS011;23991;52.430;10.586;2024-02-23T10:12:29;2.90;;;0.75;;
38182;SDS011;23991;52.430;10.586;2024-02-23T10:14:55;6.43;;;1.00;;
38182;SDS011;23991;52.430;10.586;2024-02-23T10:17:24;1.58;;;0.88;;
38182;SDS011;23991;52.430;10.586;2024-02-23T10:19:49;2.03;;;0.80;;
38182;SDS011;23991;52.430;10.586;2024-02-23T10:22:21;3.88;;;0.98;;
38182;SDS011;23991;52.430;10.586;2024-02-23T10:24:50;2.50;;;1.25;;
38182;SDS011;23991;52.430;10.586;2024-02-23T10:27:16;2.35;;;1.05;;
38182;SDS011;23991;52.430;10.586;2024-02-23T10:29:42;2.17;;;1.08;;
38182;SDS011;23991;52.430;10.586;2024-02-23T10:32:16;2.30;;;0.98;;
38182;SDS011;23991;52.430;10.586;2024-02-23T10:34:51;1.73;;;0.90;;
38182;SDS011;23991;52.430;10.586;2024-02-23T10:37:21;3.85;;;1.15;;
38182;SDS011;23991;52.430;10.586;2024-02-23T10:39:51;5.47;;;1.05;;
38182;SDS011;23991;52.430;10.586;2024-02-23T10:42:23;3.13;;;1.10;;
38182;SDS011;23991;52.430;10.586;2024-02-23T10:44:53;2.13;;;0.90;;
38182;SDS011;23991;52.430;10.586;2024-02-23T10:47:20;3.25;;;0.90;;
38182;SDS011;23991;52.430;10.586;2024-02-23T10:49:49;3.17;;;1.00;;
38182;SDS011;23991;52.430;10.586;2024-02-23T10:52:24;3.22;;;1.00;;
38182;SDS011;23991;52.430;10.586;2024-02-23T10:55:03;1.95;;;1.15;;
38182;SDS011;23991;52.430;10.586;2024-02-23T10:57:39;4.03;;;1.20;;
38182;SDS011;23991;52.430;10.586;2024-02-23T11:00:08;3.67;;;1.42;;
38182;SDS011;23991;52.430;10.586;2024-02-23T11:02:46;2.47;;;1.35;;
38182;SDS011;23991;52.430;10.586;2024-02-23T11:07:43;3.38;;;1.20;;
38182;SDS011;23991;52.430;10.586;2024-02-23T11:10:17;2.22;;;0.80;;
38182;SDS011;23991;52.430;10.586;2024-02-23T11:12:43;1.95;;;1.00;;
38182;SDS011;23991;52.430;10.586;2024-02-23T11:15:09;3.47;;;1.25;;
38182;SDS011;23991;52.430;10.586;2024-02-23T11:17:35;5.00;;;1.40;;
38182;SDS011;23991;52.430;10.586;2024-02-23T11:20:04;2.10;;;0.80;;
38182;SDS011;23991;52.430;10.586;2024-02-23T11:22:33;4.22;;;1.13;;
38182;SDS011;23991;52.430;10.586;2024-02-23T11:25:03;2.70;;;1.08;;
38182;SDS011;23991;52.430;10.586;2024-02-23T11:27:43;2.40;;;0.98;;
38182;SDS011;23991;52.430;10.586;2024-02-23T11:30:09;2.30;;;0.90;;
38182;SDS011;23991;52.430;10.586;2024-02-23T11:35:12;3.38;;;1.08;;
38182;SDS011;23991;52.430;10.586;2024-02-23T11:37:45;1.48;;;0.82;;
38182;SDS011;23991;52.430;10.586;2024-02-23T11:40:23;5.00;;;1.50;;
38182;SDS011;23991;52.430;10.586;2024-02-23T11:42:55;2.55;;;1.13;;
38182;SDS011;23991;52.430;10.586;2024-02-23T11:45:24;2.08;;;1.10;;
38182;SDS011;23991;52.430;10.586;2024-02-23T11:47:50;3.55;;;1.02;;
38182;SDS011;23991;52.430;10.586;2024-02-23T11:50:16;2.45;;;0.95;;
38182;SDS011;23991;52.430;10.586;2024-02-23T11:52:44;2.63;;;1.10;;
38182;SDS011;23991;52.430;10.586;2024-02-23T11:55:13;2.83;;;1.00;;
38182;SDS011;23991;52.430;10.586;2024-02-23T11:57:49;2.65;;;1.15;;
38182;SDS011;23991;52.430;10.586;2024-02-23T12:00:15;2.17;;;0.93;;
38182;SDS011;23991;52.430;10.586;2024-02-23T12:02:44;2.88;;;1.00;;
38182;SDS011;23991;52.430;10.586;2024-02-23T12:05:13;2.58;;;1.10;;
38182;SDS011;23991;52.430;10.586;2024-02-23T12:07:39;4.07;;;1.38;;
38182;SDS011;23991;52.430;10.586;2024-02-23T12:10:14;1.40;;;1.00;;
38182;SDS011;23991;52.430;10.586;2024-02-23T12:12:43;3.47;;;0.98;;
38182;SDS011;23991;52.430;10.586;2024-02-23T12:15:08;1.23;;;0.90;;
38182;SDS011;23991;52.430;10.586;2024-02-23T12:17:37;4.13;;;1.13;;
38182;SDS011;23991;52.430;10.586;2024-02-23T12:20:11;3.95;;;1.17;;
38182;SDS011;23991;52.430;10.586;2024-02-23T12:22:36;2.80;;;0.93;;
38182;SDS011;23991;52.430;10.586;2024-02-23T12:25:02;2.65;;;1.25;;
38182;SDS011;23991;52.430;10.586;2024-02-23T12:27:27;5.20;;;1.27;;
38182;SDS011;23991;52.430;10.586;2024-02-23T12:29:56;2.42;;;1.08;;
38182;SDS011;23991;52.430;10.586;2024-02-23T12:32:22;2.78;;;1.10;;
38182;SDS011;23991;52.430;10.586;2024-02-23T12:34:50;2.63;;;1.00;;
38182;SDS011;23991;52.430;10.586;2024-02-23T12:37:17;2.05;;;0.90;;
38182;SDS011;23991;52.430;10.586;2024-02-23T12:39:43;2.55;;;0.95;;
38182;SDS011;23991;52.430;10.586;2024-02-23T12:42:09;3.55;;;1.02;;
38182;SDS011;23991;52.430;10.586;2024-02-23T12:44:34;3.00;;;0.90;;
38182;SDS011;23991;52.430;10.586;2024-02-23T12:47:00;2.38;;;1.10;;
38182;SDS011;23991;52.430;10.586;2024-02-23T12:49:26;4.90;;;1.23;;
38182;SDS011;23991;52.430;10.586;2024-02-23T12:51:51;2.22;;;1.10;;
38182;SDS011;23991;52.430;10.586;2024-02-23T12:54:17;4.00;;;1.20;;
38182;SDS011;23991;52.430;10.586;2024-02-23T12:56:42;4.55;;;1.13;;
38182;SDS011;23991;52.430;10.586;2024-02-23T12:59:08;4.13;;;1.00;;
38182;SDS011;23991;52.430;10.586;2024-02-23T13:01:35;4.38;;;1.50;;
38182;SDS011;23991;52.430;10.586;2024-02-23T13:04:02;3.85;;;1.38;;
38182;SDS011;23991;52.430;10.586;2024-02-23T13:06:28;5.75;;;1.30;;
38182;SDS011;23991;52.430;10.586;2024-02-23T13:08:54;3.60;;;1.23;;
38182;SDS011;23991;52.430;10.586;2024-02-23T13:11:19;3.70;;;1.20;;
38182;SDS011;23991;52.430;10.586;2024-02-23T13:13:45;3.47;;;1.30;;
38182;SDS011;23991;52.430;10.586;2024-02-23T13:16:10;3.70;;;1.25;;
38182;SDS011;23991;52.430;10.586;2024-02-23T13:18:39;4.23;;;1.30;;
38182;SDS011;23991;52.430;10.586;2024-02-23T13:21:05;8.10;;;1.65;;
38182;SDS011;23991;52.430;10.586;2024-02-23T13:23:31;3.70;;;1.35;;
38182;SDS011;23991;52.430;10.586;2024-02-23T13:25:57;5.18;;;1.35;;
38182;SDS011;23991;52.430;10.586;2024-02-23T13:28:23;3.97;;;1.52;;
38182;SDS011;23991;52.430;10.586;2024-02-23T13:30:48;3.28;;;1.10;;
38182;SDS011;23991;52.430;10.586;2024-02-23T13:33:14;5.47;;;1.38;;
38182;SDS011;23991;52.430;10.586;2024-02-23T13:35:47;2.65;;;1.30;;
38182;SDS011;23991;52.430;10.586;2024-02-23T13:38:12;5.30;;;1.30;;
38182;SDS011;23991;52.430;10.586;2024-02-23T13:40:38;3.72;;;1.50;;
38182;SDS011;23991;52.430;10.586;2024-02-23T13:43:07;3.63;;;1.40;;
38182;SDS011;23991;52.430;10.586;2024-02-23T13:45:47;3.97;;;1.45;;
38182;SDS011;23991;52.430;10.586;2024-02-23T13:48:16;4.82;;;1.20;;
38182;SDS011;23991;52.430;10.586;2024-02-23T13:50:43;5.15;;;1.45;;
38182;SDS011;23991;52.430;10.586;2024-02-23T13:53:10;3.50;;;1.30;;
38182;SDS011;23991;52.430;10.586;2024-02-23T13:55:37;5.18;;;1.33;;
38182;SDS011;23991;52.430;10.586;2024-02-23T13:58:03;3.42;;;1.50;;
38182;SDS011;23991;52.430;10.586;2024-02-23T14:00:28;3.10;;;1.40;;
38182;SDS011;23991;52.430;10.586;2024-02-23T14:02:54;4.78;;;1.70;;
38182;SDS011;23991;52.430;10.586;2024-02-23T14:05:19;3.97;;;1.70;;
38182;SDS011;23991;52.430;10.586;2024-02-23T14:07:46;4.80;;;1.80;;
38182;SDS011;23991;52.430;10.586;2024-02-23T14:10:12;4.38;;;1.80;;
38182;SDS011;23991;52.430;10.586;2024-02-23T14:12:38;6.03;;;1.58;;
38182;SDS011;23991;52.430;10.586;2024-02-23T14:15:05;3.42;;;1.25;;
38182;SDS011;23991;52.430;10.586;2024-02-23T14:17:31;3.58;;;1.27;;
38182;SDS011;23991;52.430;10.586;2024-02-23T14:19:59;4.72;;;1.70;;
38182;SDS011;23991;52.430;10.586;2024-02-23T14:22:25;3.80;;;1.60;;
38182;SDS011;23991;52.430;10.586;2024-02-23T14:24:52;5.82;;;2.42;;
38182;SDS011;23991;52.430;10.586;2024-02-23T14:27:21;5.85;;;2.20;;
38182;SDS011;23991;52.430;10.586;2024-02-23T14:29:47;4.15;;;1.80;;
38182;SDS011;23991;52.430;10.586;2024-02-23T14:32:15;1.77;;;1.17;;
38182;SDS011;23991;52.430;10.586;2024-02-23T14:34:44;2.40;;;1.40;;
38182;SDS011;23991;52.430;10.586;2024-02-23T14:37:09;4.38;;;1.65;;